sensor_id;sensor_type;location;lat;lon;timestamp;temperature;humidity
12604;DHT22;6367;52.508;13.284;2024-01-30T00:01:50;8.00;95.80
12604;DHT22;6367;52.508;13.284;2024-01-30T00:04:15;8.00;95.70
12604;DHT22;6367;52.508;13.284;2024-01-30T00:06:43;8.00;95.70
12604;DHT22;6367;52.508;13.284;2024-01-30T00:09:08;8.00;95.70
12604;DHT22;6367;52.508;13.284;2024-01-30T00:11:35;8.20;95.90
12604;DHT22;6367;52.508;13.284;2024-01-30T00:14:01;8.10;95.80
12604;DHT22;6367;52.508;13.284;2024-01-30T00:16:28;8.10;95.80
12604;DHT22;6367;52.508;13.284;2024-01-30T00:18:53;8.00;95.70
12604;DHT22;6367;52.508;13.284;2024-01-30T00:21:20;7.90;95.80
12604;DHT22;6367;52.508;13.284;2024-01-30T00:23:46;7.90;95.80
12604;DHT22;6367;52.508;13.284;2024-01-30T00:26:12;7.90;95.80
12604;DHT22;6367;52.508;13.284;2024-01-30T00:28:38;7.90;95.80
12604;DHT22;6367;52.508;13.284;2024-01-30T00:31:04;7.80;95.80
12604;DHT22;6367;52.508;13.284;2024-01-30T00:33:30;7.80;95.90
12604;DHT22;6367;52.508;13.284;2024-01-30T00:35:55;7.80;95.80
12604;DHT22;6367;52.508;13.284;2024-01-30T00:38:21;7.70;95.90
12604;DHT22;6367;52.508;13.284;2024-01-30T00:40:47;7.80;95.90
12604;DHT22;6367;52.508;13.284;2024-01-30T00:43:12;7.70;95.90
12604;DHT22;6367;52.508;13.284;2024-01-30T00:45:38;7.70;96.00
12604;DHT22;6367;52.508;13.284;2024-01-30T00:48:04;7.70;95.90
12604;DHT22;6367;52.508;13.284;2024-01-30T00:50:30;7.70;95.80
12604;DHT22;6367;52.508;13.284;2024-01-30T00:52:55;7.70;96.00
12604;DHT22;6367;52.508;13.284;2024-01-30T00:55:21;7.60;96.00
12604;DHT22;6367;52.508;13.284;2024-01-30T00:57:47;7.60;96.10
12604;DHT22;6367;52.508;13.284;2024-01-30T01:00:13;7.70;96.10
12604;DHT22;6367;52.508;13.284;2024-01-30T01:02:42;7.70;95.90
12604;DHT22;6367;52.508;13.284;2024-01-30T01:05:08;7.60;96.00
12604;DHT22;6367;52.508;13.284;2024-01-30T01:07:34;7.50;96.10
12604;DHT22;6367;52.508;13.284;2024-01-30T01:10:00;7.60;96.30
12604;DHT22;6367;52.508;13.284;2024-01-30T01:12:25;7.60;96.20
12604;DHT22;6367;52.508;13.284;2024-01-30T01:14:51;7.70;96.30
12604;DHT22;6367;52.508;13.284;2024-01-30T01:17:17;7.60;96.50
12604;DHT22;6367;52.508;13.284;2024-01-30T01:19:44;7.70;96.20
12604;DHT22;6367;52.508;13.284;2024-01-30T01:22:10;7.60;96.30
12604;DHT22;6367;52.508;13.284;2024-01-30T01:24:36;7.60;96.30
12604;DHT22;6367;52.508;13.284;2024-01-30T01:27:02;7.70;96.30
12604;DHT22;6367;52.508;13.284;2024-01-30T01:29:28;7.70;96.30
12604;DHT22;6367;52.508;13.284;2024-01-30T01:31:55;7.70;96.40
12604;DHT22;6367;52.508;13.284;2024-01-30T01:34:21;7.60;96.40
12604;DHT22;6367;52.508;13.284;2024-01-30T01:36:47;7.70;96.30
12604;DHT22;6367;52.508;13.284;2024-01-30T01:39:13;7.70;96.20
12604;DHT22;6367;52.508;13.284;2024-01-30T01:41:39;7.70;96.10
12604;DHT22;6367;52.508;13.284;2024-01-30T01:44:04;7.70;96.20
12604;DHT22;6367;52.508;13.284;2024-01-30T01:46:33;7.70;96.20
12604;DHT22;6367;52.508;13.284;2024-01-30T01:49:03;7.70;96.00
12604;DHT22;6367;52.508;13.284;2024-01-30T01:51:31;7.60;96.00
12604;DHT22;6367;52.508;13.284;2024-01-30T01:53:59;7.60;96.30
12604;DHT22;6367;52.508;13.284;2024-01-30T01:56:27;7.60;96.30
12604;DHT22;6367;52.508;13.284;2024-01-30T01:58:54;7.60;96.10
12604;DHT22;6367;52.508;13.284;2024-01-30T02:01:20;7.50;96.30
12604;DHT22;6367;52.508;13.284;2024-01-30T02:03:46;7.50;96.30
12604;DHT22;6367;52.508;13.284;2024-01-30T02:06:13;7.50;96.20
12604;DHT22;6367;52.508;13.284;2024-01-30T02:08:40;7.40;96.40
12604;DHT22;6367;52.508;13.284;2024-01-30T02:11:06;7.40;96.30
12604;DHT22;6367;52.508;13.284;2024-01-30T02:13:31;7.40;96.50
12604;DHT22;6367;52.508;13.284;2024-01-30T02:15:57;7.40;96.60
12604;DHT22;6367;52.508;13.284;2024-01-30T02:18:22;7.30;96.70
12604;DHT22;6367;52.508;13.284;2024-01-30T02:20:48;7.30;96.80
12604;DHT22;6367;52.508;13.284;2024-01-30T02:23:15;7.30;96.80
12604;DHT22;6367;52.508;13.284;2024-01-30T02:25:42;7.40;96.70
12604;DHT22;6367;52.508;13.284;2024-01-30T02:28:14;7.40;96.80
12604;DHT22;6367;52.508;13.284;2024-01-30T02:30:40;7.40;96.90
12604;DHT22;6367;52.508;13.284;2024-01-30T02:33:08;7.40;96.70
12604;DHT22;6367;52.508;13.284;2024-01-30T02:35:33;7.50;96.80
12604;DHT22;6367;52.508;13.284;2024-01-30T02:37:59;7.40;96.80
12604;DHT22;6367;52.508;13.284;2024-01-30T02:40:25;7.40;96.90
12604;DHT22;6367;52.508;13.284;2024-01-30T02:42:51;7.30;96.90
12604;DHT22;6367;52.508;13.284;2024-01-30T02:45:17;7.30;96.90
12604;DHT22;6367;52.508;13.284;2024-01-30T02:47:42;7.40;96.90
12604;DHT22;6367;52.508;13.284;2024-01-30T02:50:08;7.50;96.80
12604;DHT22;6367;52.508;13.284;2024-01-30T02:52:34;7.50;96.90
12604;DHT22;6367;52.508;13.284;2024-01-30T02:55:00;7.50;96.90
12604;DHT22;6367;52.508;13.284;2024-01-30T02:57:26;7.50;96.90
12604;DHT22;6367;52.508;13.284;2024-01-30T02:59:51;7.50;96.90
12604;DHT22;6367;52.508;13.284;2024-01-30T03:02:17;7.40;96.80
12604;DHT22;6367;52.508;13.284;2024-01-30T03:04:43;7.40;96.90
12604;DHT22;6367;52.508;13.284;2024-01-30T03:07:09;7.40;96.90
12604;DHT22;6367;52.508;13.284;2024-01-30T03:09:36;7.40;97.10
12604;DHT22;6367;52.508;13.284;2024-01-30T03:12:01;7.40;97.10
12604;DHT22;6367;52.508;13.284;2024-01-30T03:14:28;7.40;96.90
12604;DHT22;6367;52.508;13.284;2024-01-30T03:16:54;7.40;96.90
12604;DHT22;6367;52.508;13.284;2024-01-30T03:19:19;7.40;97.00
12604;DHT22;6367;52.508;13.284;2024-01-30T03:21:45;7.40;97.10
12604;DHT22;6367;52.508;13.284;2024-01-30T03:24:10;7.30;97.50
12604;DHT22;6367;52.508;13.284;2024-01-30T03:26:36;7.30;97.20
12604;DHT22;6367;52.508;13.284;2024-01-30T03:29:02;7.40;97.10
12604;DHT22;6367;52.508;13.284;2024-01-30T03:31:27;7.30;97.20
12604;DHT22;6367;52.508;13.284;2024-01-30T03:33:53;7.30;97.30
12604;DHT22;6367;52.508;13.284;2024-01-30T03:36:19;7.50;97.70
12604;DHT22;6367;52.508;13.284;2024-01-30T03:38:45;7.20;97.20
12604;DHT22;6367;52.508;13.284;2024-01-30T03:41:10;7.30;97.30
12604;DHT22;6367;52.508;13.284;2024-01-30T03:43:36;7.30;97.30
12604;DHT22;6367;52.508;13.284;2024-01-30T03:46:02;7.20;97.20
12604;DHT22;6367;52.508;13.284;2024-01-30T03:48:28;7.10;97.30
12604;DHT22;6367;52.508;13.284;2024-01-30T03:50:54;7.00;97.50
12604;DHT22;6367;52.508;13.284;2024-01-30T03:53:20;7.50;97.80
12604;DHT22;6367;52.508;13.284;2024-01-30T03:55:46;7.10;97.60
12604;DHT22;6367;52.508;13.284;2024-01-30T03:58:11;7.00;97.70
12604;DHT22;6367;52.508;13.284;2024-01-30T04:00:37;7.00;97.80
12604;DHT22;6367;52.508;13.284;2024-01-30T04:03:03;7.10;97.90
12604;DHT22;6367;52.508;13.284;2024-01-30T04:05:29;7.00;97.90
12604;DHT22;6367;52.508;13.284;2024-01-30T04:07:54;7.00;98.10
12604;DHT22;6367;52.508;13.284;2024-01-30T04:10:20;7.00;98.10
12604;DHT22;6367;52.508;13.284;2024-01-30T04:12:46;7.00;98.10
12604;DHT22;6367;52.508;13.284;2024-01-30T04:15:11;7.10;98.10
12604;DHT22;6367;52.508;13.284;2024-01-30T04:17:39;7.10;98.10
12604;DHT22;6367;52.508;13.284;2024-01-30T04:20:05;7.10;98.00
12604;DHT22;6367;52.508;13.284;2024-01-30T04:22:31;7.20;97.90
12604;DHT22;6367;52.508;13.284;2024-01-30T04:24:57;7.10;98.00
12604;DHT22;6367;52.508;13.284;2024-01-30T04:27:22;7.10;98.00
12604;DHT22;6367;52.508;13.284;2024-01-30T04:29:48;7.10;98.10
12604;DHT22;6367;52.508;13.284;2024-01-30T04:32:14;7.10;98.10
12604;DHT22;6367;52.508;13.284;2024-01-30T04:34:40;7.10;98.10
12604;DHT22;6367;52.508;13.284;2024-01-30T04:37:05;7.10;98.10
12604;DHT22;6367;52.508;13.284;2024-01-30T04:39:33;7.10;98.10
12604;DHT22;6367;52.508;13.284;2024-01-30T04:41:59;7.10;98.50
12604;DHT22;6367;52.508;13.284;2024-01-30T04:44:25;7.10;98.60
12604;DHT22;6367;52.508;13.284;2024-01-30T04:46:50;7.70;98.50
12604;DHT22;6367;52.508;13.284;2024-01-30T04:49:16;7.20;98.20
12604;DHT22;6367;52.508;13.284;2024-01-30T04:51:42;7.10;98.10
12604;DHT22;6367;52.508;13.284;2024-01-30T04:54:07;7.10;98.30
12604;DHT22;6367;52.508;13.284;2024-01-30T04:56:33;7.10;98.30
12604;DHT22;6367;52.508;13.284;2024-01-30T04:58:59;7.80;98.50
12604;DHT22;6367;52.508;13.284;2024-01-30T05:01:25;7.10;98.40
12604;DHT22;6367;52.508;13.284;2024-01-30T05:03:51;7.60;98.40
12604;DHT22;6367;52.508;13.284;2024-01-30T05:06:26;7.00;98.30
12604;DHT22;6367;52.508;13.284;2024-01-30T05:08:52;7.00;98.50
12604;DHT22;6367;52.508;13.284;2024-01-30T05:11:18;7.10;98.50
12604;DHT22;6367;52.508;13.284;2024-01-30T05:13:44;7.00;98.60
12604;DHT22;6367;52.508;13.284;2024-01-30T05:16:10;7.10;98.60
12604;DHT22;6367;52.508;13.284;2024-01-30T05:18:35;7.10;98.50
12604;DHT22;6367;52.508;13.284;2024-01-30T05:21:02;7.90;98.80
12604;DHT22;6367;52.508;13.284;2024-01-30T05:23:29;7.20;98.50
12604;DHT22;6367;52.508;13.284;2024-01-30T05:25:55;7.10;98.40
12604;DHT22;6367;52.508;13.284;2024-01-30T05:28:20;7.50;98.60
12604;DHT22;6367;52.508;13.284;2024-01-30T05:30:46;7.10;98.40
12604;DHT22;6367;52.508;13.284;2024-01-30T05:33:12;7.00;98.40
12604;DHT22;6367;52.508;13.284;2024-01-30T05:35:38;7.00;98.50
12604;DHT22;6367;52.508;13.284;2024-01-30T05:38:04;7.80;98.90
12604;DHT22;6367;52.508;13.284;2024-01-30T05:40:33;7.00;98.40
12604;DHT22;6367;52.508;13.284;2024-01-30T05:42:58;7.00;98.60
12604;DHT22;6367;52.508;13.284;2024-01-30T05:45:28;7.10;98.60
12604;DHT22;6367;52.508;13.284;2024-01-30T05:47:53;7.50;98.80
12604;DHT22;6367;52.508;13.284;2024-01-30T05:50:20;7.00;98.60
12604;DHT22;6367;52.508;13.284;2024-01-30T05:52:45;6.90;98.70
12604;DHT22;6367;52.508;13.284;2024-01-30T05:55:12;7.50;99.00
12604;DHT22;6367;52.508;13.284;2024-01-30T05:57:38;6.90;98.80
12604;DHT22;6367;52.508;13.284;2024-01-30T06:00:07;7.00;98.70
12604;DHT22;6367;52.508;13.284;2024-01-30T06:02:34;7.00;98.60
12604;DHT22;6367;52.508;13.284;2024-01-30T06:04:59;7.70;99.20
12604;DHT22;6367;52.508;13.284;2024-01-30T06:07:25;7.00;98.60
12604;DHT22;6367;52.508;13.284;2024-01-30T06:09:50;6.90;98.60
12604;DHT22;6367;52.508;13.284;2024-01-30T06:12:16;6.90;98.70
12604;DHT22;6367;52.508;13.284;2024-01-30T06:14:42;6.90;98.70
12604;DHT22;6367;52.508;13.284;2024-01-30T06:17:08;6.90;98.80
12604;DHT22;6367;52.508;13.284;2024-01-30T06:19:34;6.90;98.80
12604;DHT22;6367;52.508;13.284;2024-01-30T06:22:00;6.90;98.80
12604;DHT22;6367;52.508;13.284;2024-01-30T06:24:26;6.90;98.70
12604;DHT22;6367;52.508;13.284;2024-01-30T06:26:53;6.90;98.60
12604;DHT22;6367;52.508;13.284;2024-01-30T06:29:19;6.80;98.60
12604;DHT22;6367;52.508;13.284;2024-01-30T06:31:44;6.80;98.80
12604;DHT22;6367;52.508;13.284;2024-01-30T06:34:10;7.00;98.90
12604;DHT22;6367;52.508;13.284;2024-01-30T06:36:37;7.40;99.10
12604;DHT22;6367;52.508;13.284;2024-01-30T06:39:03;6.70;98.90
12604;DHT22;6367;52.508;13.284;2024-01-30T06:41:29;6.70;98.90
12604;DHT22;6367;52.508;13.284;2024-01-30T06:43:58;6.70;99.00
12604;DHT22;6367;52.508;13.284;2024-01-30T06:46:23;6.70;99.20
12604;DHT22;6367;52.508;13.284;2024-01-30T06:48:49;6.80;99.20
12604;DHT22;6367;52.508;13.284;2024-01-30T06:51:15;7.40;99.40
12604;DHT22;6367;52.508;13.284;2024-01-30T06:53:40;6.80;99.00
12604;DHT22;6367;52.508;13.284;2024-01-30T06:56:06;6.80;99.00
12604;DHT22;6367;52.508;13.284;2024-01-30T06:58:32;7.60;99.40
12604;DHT22;6367;52.508;13.284;2024-01-30T07:00:58;6.80;99.10
12604;DHT22;6367;52.508;13.284;2024-01-30T07:03:24;6.80;99.00
12604;DHT22;6367;52.508;13.284;2024-01-30T07:05:50;7.60;99.50
12604;DHT22;6367;52.508;13.284;2024-01-30T07:08:16;6.80;99.10
12604;DHT22;6367;52.508;13.284;2024-01-30T07:10:43;6.90;99.20
12604;DHT22;6367;52.508;13.284;2024-01-30T07:13:10;7.00;99.20
12604;DHT22;6367;52.508;13.284;2024-01-30T07:15:35;7.10;99.30
12604;DHT22;6367;52.508;13.284;2024-01-30T07:18:02;7.10;99.00
12604;DHT22;6367;52.508;13.284;2024-01-30T07:20:28;7.10;98.90
12604;DHT22;6367;52.508;13.284;2024-01-30T07:22:56;7.50;99.20
12604;DHT22;6367;52.508;13.284;2024-01-30T07:25:21;7.10;99.10
12604;DHT22;6367;52.508;13.284;2024-01-30T07:27:52;7.10;99.10
12604;DHT22;6367;52.508;13.284;2024-01-30T07:30:18;7.20;99.00
12604;DHT22;6367;52.508;13.284;2024-01-30T07:32:44;7.30;98.80
12604;DHT22;6367;52.508;13.284;2024-01-30T07:35:09;7.30;98.60
12604;DHT22;6367;52.508;13.284;2024-01-30T07:37:35;7.30;98.30
12604;DHT22;6367;52.508;13.284;2024-01-30T07:40:01;7.30;98.30
12604;DHT22;6367;52.508;13.284;2024-01-30T07:42:28;7.20;98.60
12604;DHT22;6367;52.508;13.284;2024-01-30T07:44:53;7.20;98.60
12604;DHT22;6367;52.508;13.284;2024-01-30T07:47:19;6.60;98.50
12604;DHT22;6367;52.508;13.284;2024-01-30T07:49:45;7.30;98.50
12604;DHT22;6367;52.508;13.284;2024-01-30T07:52:11;6.10;97.90
12604;DHT22;6367;52.508;13.284;2024-01-30T07:54:39;7.30;98.50
12604;DHT22;6367;52.508;13.284;2024-01-30T07:57:14;7.30;98.50
12604;DHT22;6367;52.508;13.284;2024-01-30T07:59:42;7.30;98.50
12604;DHT22;6367;52.508;13.284;2024-01-30T08:02:09;7.20;98.70
12604;DHT22;6367;52.508;13.284;2024-01-30T08:04:35;7.20;99.00
12604;DHT22;6367;52.508;13.284;2024-01-30T08:07:01;7.40;98.80
12604;DHT22;6367;52.508;13.284;2024-01-30T08:09:27;7.40;98.80
12604;DHT22;6367;52.508;13.284;2024-01-30T08:11:52;7.40;98.90
12604;DHT22;6367;52.508;13.284;2024-01-30T08:14:18;7.40;99.00
12604;DHT22;6367;52.508;13.284;2024-01-30T08:16:44;7.40;98.90
12604;DHT22;6367;52.508;13.284;2024-01-30T08:19:10;7.60;98.70
12604;DHT22;6367;52.508;13.284;2024-01-30T08:21:35;7.60;98.50
12604;DHT22;6367;52.508;13.284;2024-01-30T08:24:05;7.70;98.30
12604;DHT22;6367;52.508;13.284;2024-01-30T08:26:32;7.70;98.20
12604;DHT22;6367;52.508;13.284;2024-01-30T08:28:58;7.70;98.40
12604;DHT22;6367;52.508;13.284;2024-01-30T08:31:24;7.70;98.40
12604;DHT22;6367;52.508;13.284;2024-01-30T08:33:49;7.80;98.20
12604;DHT22;6367;52.508;13.284;2024-01-30T08:36:16;7.80;98.30
12604;DHT22;6367;52.508;13.284;2024-01-30T08:38:42;7.80;98.50
12604;DHT22;6367;52.508;13.284;2024-01-30T08:41:08;7.90;98.20
12604;DHT22;6367;52.508;13.284;2024-01-30T08:43:34;8.00;98.20
12604;DHT22;6367;52.508;13.284;2024-01-30T08:46:00;8.00;98.10
12604;DHT22;6367;52.508;13.284;2024-01-30T08:48:26;8.10;97.70
12604;DHT22;6367;52.508;13.284;2024-01-30T08:50:52;8.10;97.90
12604;DHT22;6367;52.508;13.284;2024-01-30T08:53:17;8.10;97.80
12604;DHT22;6367;52.508;13.284;2024-01-30T08:55:44;8.10;98.00
12604;DHT22;6367;52.508;13.284;2024-01-30T08:58:09;8.20;98.10
12604;DHT22;6367;52.508;13.284;2024-01-30T09:00:35;8.30;98.00
12604;DHT22;6367;52.508;13.284;2024-01-30T09:03:01;8.40;97.60
12604;DHT22;6367;52.508;13.284;2024-01-30T09:05:27;8.50;97.70
12604;DHT22;6367;52.508;13.284;2024-01-30T09:07:52;8.60;97.60
12604;DHT22;6367;52.508;13.284;2024-01-30T09:10:19;8.60;97.50
12604;DHT22;6367;52.508;13.284;2024-01-30T09:12:44;8.60;97.30
12604;DHT22;6367;52.508;13.284;2024-01-30T09:15:10;8.70;97.30
12604;DHT22;6367;52.508;13.284;2024-01-30T09:17:36;8.80;96.90
12604;DHT22;6367;52.508;13.284;2024-01-30T09:20:01;8.90;96.80
12604;DHT22;6367;52.508;13.284;2024-01-30T09:22:27;8.90;96.90
12604;DHT22;6367;52.508;13.284;2024-01-30T09:24:53;8.90;96.80
12604;DHT22;6367;52.508;13.284;2024-01-30T09:27:18;8.90;97.00
12604;DHT22;6367;52.508;13.284;2024-01-30T09:29:44;8.90;96.90
12604;DHT22;6367;52.508;13.284;2024-01-30T09:32:10;9.00;96.80
12604;DHT22;6367;52.508;13.284;2024-01-30T09:34:35;9.00;96.60
12604;DHT22;6367;52.508;13.284;2024-01-30T09:37:01;9.10;96.50
12604;DHT22;6367;52.508;13.284;2024-01-30T09:39:27;9.10;96.30
12604;DHT22;6367;52.508;13.284;2024-01-30T09:42:01;9.10;96.40
12604;DHT22;6367;52.508;13.284;2024-01-30T09:44:29;9.00;96.40
12604;DHT22;6367;52.508;13.284;2024-01-30T09:46:56;9.10;96.80
12604;DHT22;6367;52.508;13.284;2024-01-30T09:49:24;9.20;96.10
12604;DHT22;6367;52.508;13.284;2024-01-30T09:51:51;9.30;96.10
12604;DHT22;6367;52.508;13.284;2024-01-30T09:54:18;9.20;96.00
12604;DHT22;6367;52.508;13.284;2024-01-30T09:56:45;9.20;96.10
12604;DHT22;6367;52.508;13.284;2024-01-30T09:59:10;9.30;96.10
12604;DHT22;6367;52.508;13.284;2024-01-30T10:01:36;9.30;96.00
12604;DHT22;6367;52.508;13.284;2024-01-30T10:04:02;9.50;95.90
12604;DHT22;6367;52.508;13.284;2024-01-30T10:06:27;9.40;95.80
12604;DHT22;6367;52.508;13.284;2024-01-30T10:08:53;9.50;95.70
12604;DHT22;6367;52.508;13.284;2024-01-30T10:11:19;9.60;95.60
12604;DHT22;6367;52.508;13.284;2024-01-30T10:13:45;9.60;95.50
12604;DHT22;6367;52.508;13.284;2024-01-30T10:16:14;9.70;95.20
12604;DHT22;6367;52.508;13.284;2024-01-30T10:18:41;9.70;95.30
12604;DHT22;6367;52.508;13.284;2024-01-30T10:21:08;9.80;95.30
12604;DHT22;6367;52.508;13.284;2024-01-30T10:23:34;10.10;95.10
12604;DHT22;6367;52.508;13.284;2024-01-30T10:25:59;9.90;95.30
12604;DHT22;6367;52.508;13.284;2024-01-30T10:28:27;9.80;95.20
12604;DHT22;6367;52.508;13.284;2024-01-30T10:31:01;9.80;95.40
12604;DHT22;6367;52.508;13.284;2024-01-30T10:33:27;10.60;94.80
12604;DHT22;6367;52.508;13.284;2024-01-30T10:36:01;9.90;94.60
12604;DHT22;6367;52.508;13.284;2024-01-30T10:38:32;9.90;94.90
12604;DHT22;6367;52.508;13.284;2024-01-30T10:41:01;10.00;94.20
12604;DHT22;6367;52.508;13.284;2024-01-30T10:43:36;10.70;94.50
12604;DHT22;6367;52.508;13.284;2024-01-30T10:46:18;10.90;94.10
12604;DHT22;6367;52.508;13.284;2024-01-30T10:48:50;10.20;93.70
12604;DHT22;6367;52.508;13.284;2024-01-30T10:51:16;10.20;93.60
12604;DHT22;6367;52.508;13.284;2024-01-30T10:53:46;10.80;93.80
12604;DHT22;6367;52.508;13.284;2024-01-30T10:56:12;10.30;93.50
12604;DHT22;6367;52.508;13.284;2024-01-30T10:58:39;10.80;93.40
12604;DHT22;6367;52.508;13.284;2024-01-30T11:01:06;10.40;93.20
12604;DHT22;6367;52.508;13.284;2024-01-30T11:03:33;10.50;93.00
12604;DHT22;6367;52.508;13.284;2024-01-30T11:06:02;10.50;93.10
12604;DHT22;6367;52.508;13.284;2024-01-30T11:08:28;10.50;93.20
12604;DHT22;6367;52.508;13.284;2024-01-30T11:10:58;10.50;93.00
12604;DHT22;6367;52.508;13.284;2024-01-30T11:13:30;10.70;92.80
12604;DHT22;6367;52.508;13.284;2024-01-30T11:16:06;10.70;92.90
12604;DHT22;6367;52.508;13.284;2024-01-30T11:18:33;10.70;92.80
12604;DHT22;6367;52.508;13.284;2024-01-30T11:20:59;10.80;92.90
12604;DHT22;6367;52.508;13.284;2024-01-30T11:23:27;10.80;92.70
12604;DHT22;6367;52.508;13.284;2024-01-30T11:25:54;10.90;92.60
12604;DHT22;6367;52.508;13.284;2024-01-30T11:28:21;11.00;92.50
12604;DHT22;6367;52.508;13.284;2024-01-30T11:30:47;10.90;92.40
12604;DHT22;6367;52.508;13.284;2024-01-30T11:33:26;11.00;92.60
12604;DHT22;6367;52.508;13.284;2024-01-30T11:35:53;11.60;92.90
12604;DHT22;6367;52.508;13.284;2024-01-30T11:38:18;11.00;92.50
12604;DHT22;6367;52.508;13.284;2024-01-30T11:40:44;11.10;92.50
12604;DHT22;6367;52.508;13.284;2024-01-30T11:43:11;11.00;92.20
12604;DHT22;6367;52.508;13.284;2024-01-30T11:45:37;10.90;92.40
12604;DHT22;6367;52.508;13.284;2024-01-30T11:48:05;11.00;92.40
12604;DHT22;6367;52.508;13.284;2024-01-30T11:50:34;11.00;92.40
12604;DHT22;6367;52.508;13.284;2024-01-30T11:53:00;10.90;92.30
12604;DHT22;6367;52.508;13.284;2024-01-30T11:55:26;10.90;92.50
12604;DHT22;6367;52.508;13.284;2024-01-30T11:57:55;11.00;92.60
12604;DHT22;6367;52.508;13.284;2024-01-30T12:00:21;11.10;92.50
12604;DHT22;6367;52.508;13.284;2024-01-30T12:02:50;11.20;92.30
12604;DHT22;6367;52.508;13.284;2024-01-30T12:05:18;11.10;92.40
12604;DHT22;6367;52.508;13.284;2024-01-30T12:07:44;11.10;92.70
12604;DHT22;6367;52.508;13.284;2024-01-30T12:10:12;11.10;92.70
12604;DHT22;6367;52.508;13.284;2024-01-30T12:12:40;11.20;92.50
12604;DHT22;6367;52.508;13.284;2024-01-30T12:15:07;11.30;92.40
12604;DHT22;6367;52.508;13.284;2024-01-30T12:17:34;11.30;92.30
12604;DHT22;6367;52.508;13.284;2024-01-30T12:20:14;11.30;92.10
12604;DHT22;6367;52.508;13.284;2024-01-30T12:22:41;11.20;92.30
12604;DHT22;6367;52.508;13.284;2024-01-30T12:25:11;11.20;92.50
12604;DHT22;6367;52.508;13.284;2024-01-30T12:27:38;11.20;92.40
12604;DHT22;6367;52.508;13.284;2024-01-30T12:32:42;11.30;92.50
12604;DHT22;6367;52.508;13.284;2024-01-30T12:35:12;11.30;92.40
12604;DHT22;6367;52.508;13.284;2024-01-30T12:37:38;11.30;92.60
12604;DHT22;6367;52.508;13.284;2024-01-30T12:40:04;11.40;92.70
12604;DHT22;6367;52.508;13.284;2024-01-30T12:42:31;11.40;92.60
12604;DHT22;6367;52.508;13.284;2024-01-30T12:44:59;11.40;92.60
12604;DHT22;6367;52.508;13.284;2024-01-30T12:47:26;11.40;92.70
12604;DHT22;6367;52.508;13.284;2024-01-30T12:49:52;11.30;92.70
12604;DHT22;6367;52.508;13.284;2024-01-30T12:52:19;11.30;92.80
12604;DHT22;6367;52.508;13.284;2024-01-30T12:54:46;11.30;92.80
12604;DHT22;6367;52.508;13.284;2024-01-30T12:57:12;11.30;92.80
12604;DHT22;6367;52.508;13.284;2024-01-30T12:59:37;11.30;93.10
12604;DHT22;6367;52.508;13.284;2024-01-30T13:02:04;11.30;93.00
12604;DHT22;6367;52.508;13.284;2024-01-30T13:04:30;11.30;93.10
12604;DHT22;6367;52.508;13.284;2024-01-30T13:06:55;11.30;93.20
12604;DHT22;6367;52.508;13.284;2024-01-30T13:09:22;11.40;93.10
12604;DHT22;6367;52.508;13.284;2024-01-30T13:11:48;11.40;93.10
12604;DHT22;6367;52.508;13.284;2024-01-30T13:14:14;11.40;93.20
12604;DHT22;6367;52.508;13.284;2024-01-30T13:16:40;11.40;93.30
12604;DHT22;6367;52.508;13.284;2024-01-30T13:19:05;11.30;93.40
12604;DHT22;6367;52.508;13.284;2024-01-30T13:21:31;11.30;93.50
12604;DHT22;6367;52.508;13.284;2024-01-30T13:23:57;11.30;93.60
12604;DHT22;6367;52.508;13.284;2024-01-30T13:26:22;11.40;93.60
12604;DHT22;6367;52.508;13.284;2024-01-30T13:28:48;11.40;93.60
12604;DHT22;6367;52.508;13.284;2024-01-30T13:31:14;11.40;93.70
12604;DHT22;6367;52.508;13.284;2024-01-30T13:33:41;11.30;94.10
12604;DHT22;6367;52.508;13.284;2024-01-30T13:36:07;11.40;93.90
12604;DHT22;6367;52.508;13.284;2024-01-30T13:38:33;11.40;93.90
12604;DHT22;6367;52.508;13.284;2024-01-30T13:41:00;11.40;93.90
12604;DHT22;6367;52.508;13.284;2024-01-30T13:43:26;11.40;94.10
12604;DHT22;6367;52.508;13.284;2024-01-30T13:45:51;11.40;94.10
12604;DHT22;6367;52.508;13.284;2024-01-30T13:48:17;11.40;94.20
12604;DHT22;6367;52.508;13.284;2024-01-30T13:50:43;11.50;94.30
12604;DHT22;6367;52.508;13.284;2024-01-30T13:53:08;11.50;94.40
12604;DHT22;6367;52.508;13.284;2024-01-30T13:55:34;11.50;94.30
12604;DHT22;6367;52.508;13.284;2024-01-30T13:58:00;11.50;94.30
12604;DHT22;6367;52.508;13.284;2024-01-30T14:00:27;11.60;94.30
12604;DHT22;6367;52.508;13.284;2024-01-30T14:02:53;11.60;94.20
12604;DHT22;6367;52.508;13.284;2024-01-30T14:05:23;11.70;94.20
12604;DHT22;6367;52.508;13.284;2024-01-30T14:07:50;11.70;94.20
12604;DHT22;6367;52.508;13.284;2024-01-30T14:10:16;11.60;94.30
12604;DHT22;6367;52.508;13.284;2024-01-30T14:12:42;11.60;94.40
12604;DHT22;6367;52.508;13.284;2024-01-30T14:15:13;11.70;94.40
12604;DHT22;6367;52.508;13.284;2024-01-30T14:17:40;11.90;94.50
12604;DHT22;6367;52.508;13.284;2024-01-30T14:20:07;11.70;94.40
12604;DHT22;6367;52.508;13.284;2024-01-30T14:22:34;11.60;94.50
12604;DHT22;6367;52.508;13.284;2024-01-30T14:25:00;11.70;94.60
12604;DHT22;6367;52.508;13.284;2024-01-30T14:27:28;11.70;94.60
12604;DHT22;6367;52.508;13.284;2024-01-30T14:29:54;11.80;94.60
12604;DHT22;6367;52.508;13.284;2024-01-30T14:32:20;11.70;94.60
12604;DHT22;6367;52.508;13.284;2024-01-30T14:34:45;11.70;94.70
12604;DHT22;6367;52.508;13.284;2024-01-30T14:37:11;12.30;95.10
12604;DHT22;6367;52.508;13.284;2024-01-30T14:39:37;11.70;94.90
12604;DHT22;6367;52.508;13.284;2024-01-30T14:42:03;12.40;95.20
12604;DHT22;6367;52.508;13.284;2024-01-30T14:44:29;12.40;95.30
12604;DHT22;6367;52.508;13.284;2024-01-30T14:46:56;11.70;95.00
12604;DHT22;6367;52.508;13.284;2024-01-30T14:49:22;11.80;95.00
12604;DHT22;6367;52.508;13.284;2024-01-30T14:51:47;11.70;95.10
12604;DHT22;6367;52.508;13.284;2024-01-30T14:54:13;11.50;95.30
12604;DHT22;6367;52.508;13.284;2024-01-30T14:56:39;11.70;95.10
12604;DHT22;6367;52.508;13.284;2024-01-30T14:59:05;11.60;95.20
12604;DHT22;6367;52.508;13.284;2024-01-30T15:01:30;11.60;95.30
12604;DHT22;6367;52.508;13.284;2024-01-30T15:03:56;11.70;95.30
12604;DHT22;6367;52.508;13.284;2024-01-30T15:06:22;11.70;95.30
12604;DHT22;6367;52.508;13.284;2024-01-30T15:08:50;11.70;95.40
12604;DHT22;6367;52.508;13.284;2024-01-30T15:11:16;11.60;95.40
12604;DHT22;6367;52.508;13.284;2024-01-30T15:13:41;11.50;95.60
12604;DHT22;6367;52.508;13.284;2024-01-30T15:16:07;11.60;95.70
12604;DHT22;6367;52.508;13.284;2024-01-30T15:18:33;11.60;95.80
12604;DHT22;6367;52.508;13.284;2024-01-30T15:20:59;11.60;95.80
12604;DHT22;6367;52.508;13.284;2024-01-30T15:23:24;11.60;95.80
12604;DHT22;6367;52.508;13.284;2024-01-30T15:25:50;11.60;95.80
12604;DHT22;6367;52.508;13.284;2024-01-30T15:28:16;11.60;95.90
12604;DHT22;6367;52.508;13.284;2024-01-30T15:30:42;11.60;95.90
12604;DHT22;6367;52.508;13.284;2024-01-30T15:33:12;11.50;96.00
12604;DHT22;6367;52.508;13.284;2024-01-30T15:35:37;11.50;96.10
12604;DHT22;6367;52.508;13.284;2024-01-30T15:38:04;11.50;96.20